Wetterdaten: Woche 30.03.20 - 05.04.20 (KW14)
Datum Zeit Temp. Aussen Temp. o. S. Temp +5cm Feuchte Auss Luftdruck Regen Sonnenschein Regendauer Solar Windben Empfang
30.03.2020 00:00 0,7 C -0,5 C -1,3 C 62 % 1034,2 hPa 0,0 l/m 0,00 h 0,00 h 0 W/m 2,8 km/h (1 Bft) 91,48 %
30.03.2020 01:00 -0,3 C -1,5 C -2,2 C 64 % 1034,1 hPa 0,0 l/m 0,00 h 0,00 h 0 W/m 0,5 km/h (0 Bft) 97,93 %
30.03.2020 02:00 -1,0 C -2,3 C -2,8 C 66 % 1034,1 hPa 0,0 l/m 0,00 h 0,00 h 0 W/m 0,3 km/h (0 Bft) 94,40 %
30.03.2020 03:00 -1,9 C -3,3 C -3,9 C 68 % 1033,9 hPa 0,0 l/m 0,00 h 0,00 h 0 W/m 0,0 km/h (0 Bft) 97,91 %
30.03.2020 04:00 -2,6 C -3,5 C -4,0 C 72 % 1033,5 hPa 0,0 l/m 0,00 h 0,00 h 0 W/m 0,6 km/h (0 Bft) 94,84 %
30.03.2020 05:00 -2,9 C -4,1 C -4,7 C 74 % 1033,2 hPa 0,2 l/m 0,00 h 0,00 h 0 W/m 0,1 km/h (0 Bft) 94,32 %
30.03.2020 06:00 -3,6 C -4,6 C -5,3 C 77 % 1033,1 hPa 0,0 l/m 0,00 h 0,00 h 0 W/m 0,0 km/h (0 Bft) 97,66 %
30.03.2020 07:00 -4,1 C -4,8 C -5,5 C 81 % 1032,8 hPa 0,0 l/m 0,00 h 0,00 h 12 W/m 0,0 km/h (0 Bft) 98,15 %
30.03.2020 08:00 -3,9 C -3,3 C -4,3 C 86 % 1032,8 hPa 0,0 l/m 0,00 h 0,00 h 29 W/m 0,1 km/h (0 Bft) 97,22 %
30.03.2020 09:00 -2,1 C 2,9 C -1,9 C 89 % 1032,7 hPa 0,0 l/m 0,40 h 0,00 h 198 W/m 0,5 km/h (0 Bft) 95,15 %
30.03.2020 10:00 3,0 C 10,7 C 10,4 C 70 % 1032,5 hPa 0,0 l/m 1,00 h 0,00 h 507 W/m 3,5 km/h (1 Bft) 98,57 %
30.03.2020 11:00 6,3 C 12,3 C 5,1 C 55 % 1032,0 hPa 0,0 l/m 0,97 h 0,00 h 608 W/m 7,5 km/h (2 Bft) 95,86 %
30.03.2020 12:00 7,1 C 9,4 C 7,8 C 57 % 1031,2 hPa 0,0 l/m 1,00 h 0,00 h 403 W/m 9,8 km/h (2 Bft) 96,50 %
30.03.2020 13:00 7,5 C 9,5 C 8,4 C 58 % 1030,5 hPa 0,0 l/m 0,63 h 0,00 h 367 W/m 12,5 km/h (3 Bft) 96,73 %
30.03.2020 14:00 8,7 C 12,6 C 11,7 C 58 % 1029,7 hPa 0,0 l/m 0,93 h 0,00 h 464 W/m 14,4 km/h (3 Bft) 95,01 %
30.03.2020 15:00 9,2 C 11,7 C 9,8 C 60 % 1029,0 hPa 0,0 l/m 0,90 h 0,00 h 414 W/m 14,3 km/h (3 Bft) 97,65 %
30.03.2020 16:00 9,5 C 11,3 C 9,6 C 63 % 1028,1 hPa 0,0 l/m 0,60 h 0,00 h 329 W/m 14,4 km/h (3 Bft) 97,57 %
30.03.2020 17:00 9,7 C 11,1 C 9,7 C 64 % 1027,3 hPa 0,0 l/m 0,57 h 0,00 h 251 W/m 11,9 km/h (2 Bft) 98,54 %
30.03.2020 18:00 9,3 C 9,1 C 8,4 C 67 % 1027,0 hPa 0,0 l/m 0,47 h 0,00 h 128 W/m 14,8 km/h (3 Bft) 98,75 %
30.03.2020 19:00 8,3 C 7,2 C 6,9 C 71 % 1026,9 hPa 0,0 l/m 0,20 h 0,00 h 33 W/m 14,3 km/h (3 Bft) 94,09 %
30.03.2020 20:00 7,3 C 6,0 C 5,7 C 75 % 1027,0 hPa 0,0 l/m 0,00 h 0,00 h 4 W/m 11,6 km/h (2 Bft) 98,86 %
30.03.2020 21:00 6,6 C 5,6 C 5,1 C 81 % 1027,3 hPa 0,0 l/m 0,00 h 0,00 h 0 W/m 7,5 km/h (2 Bft) 98,73 %
30.03.2020 22:00 6,3 C 5,3 C 4,7 C 83 % 1027,5 hPa 0,0 l/m 0,00 h 0,00 h 0 W/m 5,2 km/h (1 Bft) 97,60 %
30.03.2020 23:00 5,5 C 3,8 C 3,4 C 86 % 1027,9 hPa 0,0 l/m 0,00 h 0,40 h 0 W/m 4,4 km/h (1 Bft) 96,66 %
31.03.2020 00:00 4,6 C 3,3 C 2,8 C 89 % 1028,0 hPa 0,0 l/m 0,00 h 0,00 h 0 W/m 1,3 km/h (1 Bft) 95,09 %
31.03.2020 01:00 4,1 C 2,9 C 2,3 C 91 % 1028,2 hPa 0,0 l/m 0,00 h 0,00 h 0 W/m 2,6 km/h (1 Bft) 99,43 %
31.03.2020 02:00 3,5 C 2,4 C 1,8 C 92 % 1028,4 hPa 0,0 l/m 0,00 h 0,00 h 0 W/m 2,4 km/h (1 Bft) 95,74 %
31.03.2020 03:00 2,9 C 1,9 C 1,3 C 93 % 1028,7 hPa 0,0 l/m 0,00 h 0,00 h 0 W/m 1,3 km/h (1 Bft) 97,65 %
31.03.2020 04:00 2,2 C 1,0 C 0,6 C 94 % 1028,8 hPa 0,0 l/m 0,00 h 0,00 h 0 W/m 0,4 km/h (0 Bft) 96,29 %
31.03.2020 05:00 1,6 C 0,5 C 0,0 C 94 % 1029,1 hPa 0,2 l/m 0,00 h 0,00 h 0 W/m 0,0 km/h (0 Bft) 94,81 %
31.03.2020 06:00 1,7 C 1,1 C 1,0 C 95 % 1029,5 hPa 0,0 l/m 0,00 h 0,00 h 0 W/m 2,3 km/h (1 Bft) 96,37 %
31.03.2020 07:00 1,9 C 1,4 C 1,2 C 95 % 1030,1 hPa 0,0 l/m 0,00 h 0,00 h 15 W/m 1,7 km/h (1 Bft) 97,81 %
31.03.2020 08:00 2,3 C 2,7 C 2,3 C 95 % 1030,7 hPa 0,0 l/m 0,00 h 0,00 h 64 W/m 3,4 km/h (1 Bft) 93,25 %
31.03.2020 09:00 3,2 C 6,1 C 3,3 C 93 % 1031,1 hPa 0,0 l/m 0,40 h 0,00 h 190 W/m 3,6 km/h (1 Bft) 98,01 %
31.03.2020 10:00 6,1 C 12,1 C 12,2 C 83 % 1031,5 hPa 0,0 l/m 1,00 h 0,00 h 500 W/m 6,8 km/h (2 Bft) 98,29 %
31.03.2020 11:00 7,9 C 14,0 C 6,8 C 72 % 1031,5 hPa 0,0 l/m 1,00 h 0,00 h 656 W/m 10,4 km/h (2 Bft) 97,72 %
31.03.2020 12:00 8,8 C 14,5 C 8,2 C 63 % 1031,0 hPa 0,0 l/m 0,93 h 0,00 h 692 W/m 13,1 km/h (3 Bft) 97,54 %
31.03.2020 13:00 10,0 C 15,8 C 11,1 C 55 % 1030,7 hPa 0,0 l/m 0,95 h 0,00 h 781 W/m 12,2 km/h (2 Bft) 95,95 %
31.03.2020 14:00 10,7 C 16,2 C 15,7 C 51 % 1030,4 hPa 0,0 l/m 1,05 h 0,00 h 762 W/m 11,5 km/h (2 Bft) 97,50 %
31.03.2020 15:00 11,2 C 15,9 C 11,5 C 51 % 1029,8 hPa 0,0 l/m 1,00 h 0,00 h 682 W/m 12,8 km/h (3 Bft) 98,21 %
31.03.2020 16:00 11,8 C 15,9 C 12,2 C 49 % 1029,3 hPa 0,0 l/m 1,00 h 0,00 h 559 W/m 11,2 km/h (2 Bft) 99,01 %
31.03.2020 17:00 11,2 C 14,0 C 11,4 C 46 % 1028,7 hPa 0,0 l/m 1,00 h 0,00 h 410 W/m 11,4 km/h (2 Bft) 97,01 %
31.03.2020 18:00 9,3 C 8,4 C 7,3 C 47 % 1028,5 hPa 0,0 l/m 0,17 h 0,00 h 72 W/m 9,1 km/h (2 Bft) 97,20 %
31.03.2020 19:00 7,9 C 6,5 C 5,8 C 52 % 1028,5 hPa 0,0 l/m 0,00 h 0,00 h 21 W/m 3,8 km/h (1 Bft) 97,72 %
31.03.2020 20:00 6,4 C 4,4 C 3,4 C 56 % 1028,5 hPa 0,0 l/m 0,00 h 0,00 h 6 W/m 0,0 km/h (0 Bft) 97,09 %
31.03.2020 21:00 4,7 C 2,4 C 1,4 C 60 % 1028,3 hPa 0,0 l/m 0,00 h 0,00 h 0 W/m 0,0 km/h (0 Bft) 96,02 %
31.03.2020 22:00 3,0 C 0,9 C 0,1 C 65 % 1027,8 hPa 0,0 l/m 0,00 h 0,00 h 0 W/m 0,0 km/h (0 Bft) 96,71 %
31.03.2020 23:00 1,6 C 0,0 C -0,9 C 70 % 1027,7 hPa 0,0 l/m 0,00 h 0,00 h 0 W/m 0,0 km/h (0 Bft) 98,43 %
01.04.2020 00:00 0,5 C -0,6 C -1,6 C 75 % 1027,4 hPa 0,0 l/m 0,00 h 0,00 h 0 W/m 0,0 km/h (0 Bft) 97,74 %
01.04.2020 01:00 -0,3 C -1,5 C -2,2 C 78 % 1027,0 hPa 0,0 l/m 0,00 h 0,00 h 0 W/m 0,0 km/h (0 Bft) 96,29 %
01.04.2020 02:00 -1,0 C -2,0 C -2,7 C 81 % 1026,5 hPa 0,0 l/m 0,00 h 0,00 h 0 W/m 0,0 km/h (0 Bft) 94,20 %
01.04.2020 03:00 -1,5 C -2,3 C -2,8 C 84 % 1026,1 hPa 0,0 l/m 0,00 h 0,00 h 0 W/m 0,0 km/h (0 Bft) 95,73 %
01.04.2020 04:00 -1,8 C -2,7 C -3,2 C 85 % 1025,5 hPa 0,0 l/m 0,00 h 0,00 h 0 W/m 0,0 km/h (0 Bft) 96,82 %
01.04.2020 05:00 -2,0 C -2,8 C -3,5 C 87 % 1025,1 hPa 0,0 l/m 0,00 h 0,00 h 0 W/m 0,0 km/h (0 Bft) 97,00 %
01.04.2020 06:00 -2,4 C -3,5 C -3,9 C 87 % 1024,8 hPa 0,0 l/m 0,00 h 0,00 h 0 W/m 0,0 km/h (0 Bft) 95,99 %
01.04.2020 07:00 -2,8 C -3,5 C -3,9 C 89 % 1024,7 hPa 0,0 l/m 0,00 h 0,00 h 12 W/m 0,0 km/h (0 Bft) 97,62 %
01.04.2020 08:00 -2,6 C -1,4 C -2,8 C 91 % 1024,6 hPa 0,0 l/m 0,00 h 0,00 h 32 W/m 0,0 km/h (0 Bft) 95,02 %
01.04.2020 09:00 0,5 C 4,7 C 1,4 C 90 % 1024,3 hPa 0,0 l/m 0,40 h 0,00 h 187 W/m 7,2 km/h (2 Bft) 98,07 %
01.04.2020 10:00 5,8 C 12,0 C 12,6 C 68 % 1024,3 hPa 0,0 l/m 1,00 h 0,00 h 503 W/m 2,7 km/h (1 Bft) 97,58 %
01.04.2020 11:00 9,0 C 16,0 C 7,1 C 59 % 1024,0 hPa 0,0 l/m 1,00 h 0,00 h 640 W/m 3,3 km/h (1 Bft) 98,01 %
01.04.2020 12:00 10,5 C 16,5 C 8,5 C 51 % 1023,1 hPa 0,0 l/m 1,00 h 0,00 h 731 W/m 6,5 km/h (2 Bft) 96,80 %
01.04.2020 13:00 12,0 C 18,6 C 12,8 C 48 % 1022,2 hPa 0,0 l/m 1,00 h 0,00 h 770 W/m 9,8 km/h (2 Bft) 95,65 %
01.04.2020 14:00 12,5 C 18,2 C 17,2 C 46 % 1021,3 hPa 0,0 l/m 1,00 h 0,00 h 757 W/m 8,8 km/h (2 Bft) 97,58 %
01.04.2020 15:00 12,9 C 18,3 C 11,7 C 44 % 1020,6 hPa 0,0 l/m 1,00 h 0,00 h 690 W/m 10,2 km/h (2 Bft) 95,88 %
01.04.2020 16:00 13,3 C 17,7 C 12,4 C 43 % 1019,9 hPa 0,0 l/m 1,00 h 0,00 h 572 W/m 10,7 km/h (2 Bft) 99,43 %
01.04.2020 17:00 13,4 C 16,6 C 13,1 C 43 % 1019,2 hPa 0,0 l/m 1,00 h 0,00 h 414 W/m 7,4 km/h (2 Bft) 97,79 %
01.04.2020 18:00 11,6 C 10,3 C 8,8 C 45 % 1018,7 hPa 0,0 l/m 0,20 h 0,00 h 81 W/m 8,1 km/h (2 Bft) 97,42 %
01.04.2020 19:00 9,5 C 7,8 C 6,9 C 50 % 1018,4 hPa 0,0 l/m 0,00 h 0,00 h 22 W/m 0,4 km/h (0 Bft) 99,07 %
01.04.2020 20:00 8,0 C 5,6 C 4,4 C 56 % 1018,3 hPa 0,0 l/m 0,00 h 0,00 h 6 W/m 0,4 km/h (0 Bft) 97,07 %
01.04.2020 21:00 6,4 C 4,6 C 3,6 C 66 % 1018,5 hPa 0,0 l/m 0,00 h 0,00 h 0 W/m 0,9 km/h (0 Bft) 96,24 %
01.04.2020 22:00 5,2 C 3,0 C 1,9 C 70 % 1018,2 hPa 0,0 l/m 0,00 h 0,00 h 0 W/m 0,0 km/h (0 Bft) 97,78 %
01.04.2020 23:00 3,6 C 1,4 C 0,6 C 73 % 1018,0 hPa 0,0 l/m 0,00 h 0,00 h 0 W/m 0,0 km/h (0 Bft) 96,45 %
02.04.2020 00:00 2,3 C 0,8 C -0,2 C 77 % 1017,7 hPa 0,0 l/m 0,00 h 0,00 h 0 W/m 0,0 km/h (0 Bft) 97,07 %
02.04.2020 01:00 1,5 C 0,3 C -0,7 C 81 % 1017,5 hPa 0,0 l/m 0,00 h 0,00 h 0 W/m 0,0 km/h (0 Bft) 97,81 %
02.04.2020 02:00 0,9 C 0,0 C -1,2 C 85 % 1017,3 hPa 0,0 l/m 0,00 h 0,00 h 0 W/m 0,0 km/h (0 Bft) 99,43 %
02.04.2020 03:00 0,5 C -0,6 C -1,7 C 87 % 1017,2 hPa 0,0 l/m 0,00 h 0,00 h 0 W/m 0,0 km/h (0 Bft) 98,71 %
02.04.2020 04:00 0,0 C -1,0 C -1,9 C 88 % 1016,9 hPa 0,0 l/m 0,00 h 0,00 h 0 W/m 0,0 km/h (0 Bft) 94,77 %
02.04.2020 05:00 -0,1 C -0,8 C -1,8 C 90 % 1016,3 hPa 0,0 l/m 0,00 h 0,00 h 0 W/m 0,0 km/h (0 Bft) 99,06 %
02.04.2020 06:00 -0,0 C -0,5 C -1,3 C 92 % 1016,0 hPa 0,0 l/m 0,00 h 0,00 h 0 W/m 0,0 km/h (0 Bft) 97,19 %
02.04.2020 07:00 0,5 C 0,8 C 0,1 C 93 % 1015,9 hPa 0,0 l/m 0,00 h 0,00 h 10 W/m 0,0 km/h (0 Bft) 95,16 %
02.04.2020 08:00 1,6 C 2,4 C 1,8 C 95 % 1015,9 hPa 0,0 l/m 0,00 h 0,00 h 42 W/m 0,0 km/h (0 Bft) 97,40 %
02.04.2020 09:00 3,0 C 4,5 C 3,7 C 95 % 1015,9 hPa 0,0 l/m 0,00 h 0,00 h 118 W/m 0,0 km/h (0 Bft) 96,08 %
02.04.2020 10:00 5,0 C 7,1 C 6,0 C 92 % 1015,9 hPa 0,0 l/m 0,07 h 0,00 h 205 W/m 5,9 km/h (2 Bft) 97,79 %
02.04.2020 11:00 7,6 C 10,8 C 8,7 C 80 % 1015,7 hPa 0,0 l/m 0,80 h 0,00 h 381 W/m 3,6 km/h (1 Bft) 96,42 %
02.04.2020 12:00 9,1 C 13,5 C 9,8 C 69 % 1015,2 hPa 0,0 l/m 0,97 h 0,00 h 542 W/m 0,0 km/h (0 Bft) 98,68 %
02.04.2020 13:00 10,8 C 13,6 C 11,7 C 57 % 1014,5 hPa 0,0 l/m 0,90 h 0,00 h 534 W/m 13,4 km/h (3 Bft) 98,44 %
02.04.2020 14:00 11,8 C 15,2 C 14,4 C 56 % 1013,8 hPa 0,0 l/m 0,90 h 0,00 h 512 W/m 13,4 km/h (3 Bft) 97,57 %
02.04.2020 15:00 11,8 C 13,6 C 12,1 C 56 % 1013,4 hPa 0,0 l/m 1,00 h 0,00 h 430 W/m 13,7 km/h (3 Bft) 97,66 %
02.04.2020 16:00 11,5 C 12,4 C 11,7 C 57 % 1013,0 hPa 0,0 l/m 0,87 h 0,00 h 284 W/m 13,3 km/h (3 Bft) 94,63 %
02.04.2020 17:00 11,2 C 11,2 C 10,8 C 59 % 1012,4 hPa 0,0 l/m 0,13 h 0,00 h 172 W/m 11,3 km/h (2 Bft) 98,65 %
02.04.2020 18:00 10,2 C 9,4 C 9,2 C 63 % 1012,4 hPa 0,0 l/m 0,00 h 0,00 h 47 W/m 12,6 km/h (3 Bft) 99,23 %
02.04.2020 19:00 9,4 C 8,6 C 8,3 C 65 % 1012,5 hPa 0,0 l/m 0,00 h 0,00 h 13 W/m 9,3 km/h (2 Bft) 95,21 %
02.04.2020 20:00 9,2 C 8,3 C 8,0 C 68 % 1012,5 hPa 0,0 l/m 0,00 h 0,00 h 0 W/m 8,9 km/h (2 Bft) 96,87 %
02.04.2020 21:00 8,6 C 7,2 C 7,0 C 70 % 1012,4 hPa 0,0 l/m 0,00 h 0,00 h 0 W/m 7,7 km/h (2 Bft) 98,80 %
02.04.2020 22:00 7,7 C 6,8 C 6,4 C 73 % 1012,6 hPa 0,0 l/m 0,00 h 0,00 h 0 W/m 2,4 km/h (1 Bft) 96,30 %
02.04.2020 23:00 7,8 C 7,1 C 6,6 C 74 % 1012,4 hPa 0,0 l/m 0,00 h 0,13 h 0 W/m 10,5 km/h (2 Bft) 97,72 %
03.04.2020 00:00 8,0 C 6,8 C 6,3 C 74 % 1012,3 hPa 0,0 l/m 0,00 h 0,37 h 0 W/m 9,0 km/h (2 Bft) 97,24 %
03.04.2020 01:00 7,8 C 6,8 C 5,9 C 79 % 1011,9 hPa 0,0 l/m 0,00 h 0,03 h 0 W/m 10,6 km/h (2 Bft) 97,30 %
03.04.2020 02:00 7,9 C 6,8 C 6,2 C 81 % 1011,8 hPa 0,0 l/m 0,00 h 0,13 h 0 W/m 9,5 km/h (2 Bft) 97,87 %
03.04.2020 03:00 7,7 C 6,9 C 6,3 C 84 % 1011,8 hPa 0,0 l/m 0,00 h 0,00 h 0 W/m 7,0 km/h (2 Bft) 96,44 %
03.04.2020 04:00 7,6 C 6,7 C 6,1 C 85 % 1012,2 hPa 0,0 l/m 0,00 h 0,00 h 0 W/m 4,0 km/h (1 Bft) 95,89 %
03.04.2020 05:00 7,4 C 6,7 C 6,1 C 87 % 1012,5 hPa 0,0 l/m 0,00 h 0,00 h 0 W/m 2,8 km/h (1 Bft) 98,07 %
03.04.2020 06:00 7,2 C 6,7 C 6,1 C 89 % 1012,9 hPa 0,0 l/m 0,00 h 0,00 h 0 W/m 4,4 km/h (1 Bft) 97,11 %
03.04.2020 07:00 7,2 C 6,7 C 6,1 C 90 % 1013,6 hPa 0,0 l/m 0,00 h 0,00 h 8 W/m 3,1 km/h (1 Bft) 96,38 %
03.04.2020 08:00 7,3 C 6,9 C 6,4 C 90 % 1014,2 hPa 0,0 l/m 0,00 h 0,00 h 40 W/m 3,7 km/h (1 Bft) 96,94 %
03.04.2020 09:00 7,9 C 8,2 C 7,6 C 89 % 1014,7 hPa 0,0 l/m 0,00 h 0,00 h 113 W/m 4,8 km/h (1 Bft) 98,65 %
03.04.2020 10:00 9,5 C 11,9 C 10,8 C 85 % 1015,3 hPa 0,0 l/m 0,73 h 0,00 h 274 W/m 5,8 km/h (2 Bft) 98,00 %
03.04.2020 11:00 11,4 C 13,2 C 12,0 C 76 % 1015,8 hPa 0,0 l/m 0,60 h 0,00 h 295 W/m 9,2 km/h (2 Bft) 94,62 %
03.04.2020 12:00 10,8 C 11,2 C 10,7 C 73 % 1016,3 hPa 0,0 l/m 0,10 h 0,00 h 220 W/m 10,8 km/h (2 Bft) 96,79 %
03.04.2020 13:00 11,4 C 12,2 C 11,7 C 69 % 1016,6 hPa 0,0 l/m 0,17 h 0,00 h 236 W/m 12,0 km/h (2 Bft) 98,57 %
03.04.2020 14:00 11,2 C 11,6 C 11,2 C 65 % 1016,9 hPa 0,0 l/m 0,03 h 0,00 h 204 W/m 16,3 km/h (3 Bft) 97,09 %
03.04.2020 15:00 11,4 C 12,2 C 11,5 C 62 % 1017,1 hPa 0,0 l/m 0,30 h 0,00 h 234 W/m 16,2 km/h (3 Bft) 98,01 %
03.04.2020 16:00 11,8 C 13,2 C 11,9 C 58 % 1017,5 hPa 0,0 l/m 0,80 h 0,00 h 346 W/m 20,6 km/h (4 Bft) 97,01 %
03.04.2020 17:00 11,3 C 12,3 C 11,1 C 59 % 1017,9 hPa 0,0 l/m 0,53 h 0,00 h 235 W/m 17,0 km/h (3 Bft) 95,65 %
03.04.2020 18:00 11,2 C 11,1 C 10,3 C 56 % 1018,3 hPa 0,0 l/m 0,37 h 0,00 h 146 W/m 13,4 km/h (3 Bft) 99,78 %
03.04.2020 19:00 9,9 C 8,7 C 8,5 C 61 % 1018,8 hPa 0,0 l/m 0,00 h 0,00 h 39 W/m 15,2 km/h (3 Bft) 95,87 %
03.04.2020 20:00 8,2 C 6,5 C 6,3 C 68 % 1019,6 hPa 0,0 l/m 0,00 h 0,00 h 8 W/m 7,7 km/h (2 Bft) 95,19 %
03.04.2020 21:00 6,6 C 4,5 C 3,9 C 73 % 1020,5 hPa 0,0 l/m 0,00 h 0,00 h 0 W/m 1,3 km/h (1 Bft) 98,45 %
03.04.2020 22:00 5,2 C 3,5 C 2,6 C 74 % 1021,1 hPa 0,0 l/m 0,00 h 0,00 h 0 W/m 0,6 km/h (0 Bft) 99,86 %
03.04.2020 23:00 4,0 C 2,1 C 1,0 C 75 % 1021,5 hPa 0,0 l/m 0,00 h 0,00 h 0 W/m 0,0 km/h (0 Bft) 97,01 %
04.04.2020 00:00 2,6 C 0,9 C 0,0 C 77 % 1022,0 hPa 0,0 l/m 0,00 h 0,00 h 0 W/m 0,0 km/h (0 Bft) 96,33 %
04.04.2020 01:00 1,5 C 0,1 C -0,7 C 81 % 1022,3 hPa 0,0 l/m 0,00 h 0,00 h 0 W/m 0,0 km/h (0 Bft) 98,08 %
04.04.2020 02:00 0,5 C -0,8 C -1,5 C 84 % 1022,7 hPa 0,0 l/m 0,00 h 0,00 h 0 W/m 0,0 km/h (0 Bft) 93,44 %
04.04.2020 03:00 -0,2 C -1,3 C -2,0 C 87 % 1022,9 hPa 0,0 l/m 0,00 h 0,00 h 0 W/m 0,0 km/h (0 Bft) 95,13 %
04.04.2020 04:00 -1,0 C -2,0 C -2,2 C 88 % 1023,1 hPa 0,0 l/m 0,00 h 0,00 h 0 W/m 0,0 km/h (0 Bft) 98,69 %
04.04.2020 05:00 -1,3 C -2,2 C -2,8 C 90 % 1023,3 hPa 0,0 l/m 0,00 h 0,00 h 0 W/m 0,0 km/h (0 Bft) 97,37 %
04.04.2020 06:00 -1,1 C -1,3 C -2,3 C 92 % 1023,8 hPa 0,0 l/m 0,00 h 0,00 h 0 W/m 1,4 km/h (1 Bft) 97,31 %
04.04.2020 07:00 -0,5 C -0,4 C -1,4 C 93 % 1024,2 hPa 0,0 l/m 0,00 h 0,00 h 13 W/m 1,7 km/h (1 Bft) 96,58 %
04.04.2020 08:00 0,6 C 1,4 C 0,5 C 94 % 1024,9 hPa 0,0 l/m 0,00 h 0,00 h 31 W/m 2,9 km/h (1 Bft) 97,93 %
04.04.2020 09:00 3,4 C 6,7 C 4,6 C 90 % 1025,4 hPa 0,0 l/m 0,73 h 0,00 h 282 W/m 9,3 km/h (2 Bft) 97,91 %
04.04.2020 10:00 8,5 C 12,9 C 14,8 C 70 % 1025,8 hPa 0,0 l/m 1,00 h 0,00 h 529 W/m 16,6 km/h (3 Bft) 97,81 %
04.04.2020 11:00 10,8 C 14,9 C 9,7 C 58 % 1026,0 hPa 0,0 l/m 1,00 h 0,00 h 671 W/m 17,5 km/h (3 Bft) 98,15 %
04.04.2020 12:00 12,6 C 17,4 C 11,2 C 52 % 1025,8 hPa 0,0 l/m 1,00 h 0,00 h 762 W/m 16,1 km/h (3 Bft) 98,75 %
04.04.2020 13:00 13,5 C 18,0 C 14,6 C 48 % 1025,5 hPa 0,0 l/m 1,00 h 0,00 h 796 W/m 18,1 km/h (3 Bft) 97,72 %
04.04.2020 14:00 14,2 C 18,6 C 18,1 C 45 % 1025,0 hPa 0,0 l/m 1,00 h 0,00 h 777 W/m 16,6 km/h (3 Bft) 98,58 %
04.04.2020 15:00 14,8 C 18,9 C 15,2 C 45 % 1024,6 hPa 0,0 l/m 1,00 h 0,00 h 708 W/m 16,7 km/h (3 Bft) 96,08 %
04.04.2020 16:00 15,5 C 19,3 C 16,2 C 42 % 1023,9 hPa 0,0 l/m 1,00 h 0,00 h 595 W/m 14,9 km/h (3 Bft) 97,03 %
04.04.2020 17:00 16,3 C 19,0 C 16,3 C 41 % 1023,5 hPa 0,0 l/m 1,00 h 0,00 h 439 W/m 13,0 km/h (3 Bft) 99,72 %
04.04.2020 18:00 15,6 C 15,0 C 13,2 C 41 % 1023,3 hPa 0,0 l/m 0,30 h 0,00 h 101 W/m 12,0 km/h (2 Bft) 94,63 %
04.04.2020 19:00 14,5 C 13,4 C 12,5 C 43 % 1023,4 hPa 0,0 l/m 0,00 h 0,00 h 22 W/m 6,4 km/h (2 Bft) 98,36 %
04.04.2020 20:00 13,1 C 10,7 C 8,3 C 48 % 1023,7 hPa 0,0 l/m 0,00 h 0,00 h 6 W/m 0,1 km/h (0 Bft) 98,58 %
04.04.2020 21:00 10,4 C 8,1 C 6,8 C 57 % 1024,1 hPa 0,0 l/m 0,00 h 0,00 h 0 W/m 0,0 km/h (0 Bft) 98,76 %
04.04.2020 22:00 8,9 C 6,9 C 5,4 C 62 % 1024,1 hPa 0,0 l/m 0,00 h 0,00 h 0 W/m 0,0 km/h (0 Bft) 93,18 %
04.04.2020 23:00 7,5 C 5,4 C 4,0 C 66 % 1024,2 hPa 0,0 l/m 0,00 h 0,00 h 0 W/m 0,0 km/h (0 Bft) 97,72 %
05.04.2020 00:00 6,1 C 4,2 C 2,9 C 70 % 1024,3 hPa 0,0 l/m 0,00 h 0,00 h 0 W/m 0,0 km/h (0 Bft) 98,78 %
05.04.2020 01:00 5,9 C 5,7 C 4,2 C 75 % 1024,3 hPa 0,0 l/m 0,00 h 0,00 h 0 W/m 0,9 km/h (0 Bft) 95,94 %
05.04.2020 02:00 7,1 C 6,4 C 4,4 C 72 % 1024,1 hPa 0,0 l/m 0,00 h 0,00 h 0 W/m 0,0 km/h (0 Bft) 96,73 %
05.04.2020 03:00 6,6 C 5,1 C 3,3 C 73 % 1023,7 hPa 0,0 l/m 0,00 h 0,00 h 0 W/m 0,0 km/h (0 Bft) 95,20 %
05.04.2020 04:00 5,7 C 4,9 C 2,9 C 76 % 1023,6 hPa 0,0 l/m 0,00 h 0,00 h 0 W/m 0,4 km/h (0 Bft) 96,32 %
05.04.2020 05:00 5,4 C 4,4 C 2,3 C 77 % 1023,6 hPa 0,0 l/m 0,00 h 0,00 h 0 W/m 0,1 km/h (0 Bft) 95,80 %
05.04.2020 06:00 5,2 C 4,8 C 3,5 C 79 % 1023,6 hPa 0,0 l/m 0,00 h 0,00 h 0 W/m 2,0 km/h (1 Bft) 96,84 %
05.04.2020 07:00 5,5 C 5,2 C 4,1 C 79 % 1023,9 hPa 0,0 l/m 0,00 h 0,00 h 16 W/m 3,6 km/h (1 Bft) 96,01 %
05.04.2020 08:00 7,1 C 7,5 C 6,5 C 76 % 1024,2 hPa 0,0 l/m 0,00 h 0,00 h 37 W/m 15,8 km/h (3 Bft) 98,93 %
05.04.2020 09:00 10,2 C 12,1 C 10,6 C 66 % 1024,2 hPa 0,0 l/m 0,70 h 0,00 h 293 W/m 24,7 km/h (4 Bft) 97,29 %
05.04.2020 10:00 13,4 C 16,6 C 18,2 C 57 % 1023,9 hPa 0,0 l/m 1,00 h 0,00 h 537 W/m 29,1 km/h (5 Bft) 98,36 %
05.04.2020 11:00 15,6 C 18,9 C 14,7 C 51 % 1023,4 hPa 0,0 l/m 1,00 h 0,00 h 678 W/m 31,9 km/h (5 Bft) 97,15 %
05.04.2020 12:00 17,1 C 20,1 C 16,2 C 45 % 1022,7 hPa 0,0 l/m 1,00 h 0,00 h 772 W/m 42,8 km/h (6 Bft) 96,13 %
05.04.2020 13:00 18,2 C 21,1 C 19,6 C 42 % 1022,0 hPa 0,0 l/m 1,00 h 0,00 h 809 W/m 38,8 km/h (5 Bft) 98,65 %
05.04.2020 14:00 19,2 C 22,2 C 22,6 C 40 % 1021,3 hPa 0,0 l/m 1,00 h 0,00 h 791 W/m 37,0 km/h (5 Bft) 97,94 %
05.04.2020 15:00 20,0 C 23,0 C 19,9 C 38 % 1020,5 hPa 0,0 l/m 1,00 h 0,00 h 719 W/m 33,3 km/h (5 Bft) 97,22 %
05.04.2020 16:00 20,6 C 23,1 C 20,7 C 36 % 1019,7 hPa 0,0 l/m 1,00 h 0,00 h 601 W/m 28,4 km/h (4 Bft) 96,70 %
05.04.2020 17:00 20,8 C 22,5 C 20,9 C 36 % 1018,9 hPa 0,0 l/m 1,00 h 0,00 h 441 W/m 26,7 km/h (4 Bft) 99,23 %
05.04.2020 18:00 19,9 C 19,3 C 18,0 C 38 % 1018,6 hPa 0,0 l/m 0,30 h 0,00 h 115 W/m 27,2 km/h (4 Bft) 97,97 %
05.04.2020 19:00 18,9 C 17,5 C 16,8 C 41 % 1018,5 hPa 0,0 l/m 0,00 h 0,00 h 25 W/m 20,9 km/h (4 Bft) 96,44 %
05.04.2020 20:00 17,1 C 15,4 C 14,5 C 45 % 1018,6 hPa 0,0 l/m 0,00 h 0,00 h 8 W/m 11,6 km/h (2 Bft) 99,71 %
05.04.2020 21:00 15,7 C 14,4 C 13,6 C 47 % 1018,7 hPa 0,0 l/m 0,00 h 0,00 h 0 W/m 11,6 km/h (2 Bft) 98,01 %
05.04.2020 22:00 14,8 C 13,3 C 12,5 C 49 % 1018,6 hPa 0,0 l/m 0,00 h 0,00 h 0 W/m 10,1 km/h (2 Bft) 95,58 %
05.04.2020 23:00 13,8 C 12,4 C 11,6 C 51 % 1018,3 hPa 0,0 l/m 0,00 h 0,00 h 0 W/m 11,5 km/h (2 Bft) 96,65 %
Min-Datum _ 30.03.20 30.03.20 30.03.20 05.04.20 03.04.20 - - - - 30.03.20 30.03.20
_ Min-Zeit 07:58 06:16 06:20 15:46 01:56 - - - - 00:08 00:02
Minimum _ -4,3 C -5,0 C -5,6 C 35 % 1011,6 hPa - - - - 0,0 km/h (0 Bft) 12,50 %
Max-Datum _ 05.04.20 05.04.20 05.04.20 31.03.20 30.03.20 30.03.20 31.03.20 30.03.20 02.04.20 05.04.20 30.03.20
_ Max-Zeit 16:58 15:16 14:16 06:14 00:32 05:32 12:30 23:12 13:10 12:50 00:52
Maximum _ 20,9 C 23,9 C 26,1 C 95 % 1034,3 hPa 0,2 l/m 0,08 h 0,03 h 932 W/m 67,6 km/h
O-SO (8 Bft)
100,00 %
Durchschnitt _ 7,0 C 7,7 C 6,2 C 69 % 1022,7 hPa #0,4 l/m #52:04 h #1:04 h 328 W/m 7,5 km/h (2 Bft) 97,11 %
© 2020 W. Hausmann